METAR Data
IDs: Format: Raw Decoded Include TAF

Data at: 1945 UTC 26 Sep 2021

METAR for:KHEF (Manassas Rgnl, VA, US)
Text:KHEF 261856Z 28010KT 10SM CLR 24/08 A3002 RMK AO2 SLP168 T02390078 PNO $
Temperature: 23.9°C ( 75°F)
Dewpoint: 7.8°C ( 46°F) [RH = 36%]
Pressure (altimeter):30.02 inches Hg (1016.7 mb) [Sea level pressure: 1016.8 mb]
Winds:from the W (280 degrees) at 12 MPH (10 knots; 5.1 m/s)
Visibility:10 or more sm (16+ km)
Ceiling:at least 12,000 feet AGL
Clouds:sky clear below 12,000 feet AGL
QC Flag:SOME DATA ABOVE MAY BE INACCURATE!!!"$" is an indication the sensor requires maintenance.

TAF for:KHEF (Manassas Rgnl, VA, US)
Text:No data found